createdAt,value
2023-03-11T00:00:46.759Z,5.65
2023-03-11T00:03:16.715Z,5.64
2023-03-11T00:05:45.145Z,5.42
2023-03-11T00:08:17.148Z,5.26
2023-03-11T00:10:46.173Z,5.47
2023-03-11T00:13:15.961Z,5.38
2023-03-11T00:15:46.990Z,5.46
2023-03-11T00:18:14.182Z,5.44
2023-03-11T00:20:44.755Z,5.39
2023-03-11T00:23:13.904Z,5.45
2023-03-11T00:25:43.727Z,5.44
2023-03-11T00:28:11.189Z,5.41
2023-03-11T00:30:40.373Z,5.39
2023-03-11T00:33:08.220Z,5.31
2023-03-11T00:35:35.422Z,5.39
2023-03-11T00:38:07.022Z,5.61
2023-03-11T00:40:35.915Z,5.39
2023-03-11T00:43:03.698Z,5.49
2023-03-11T00:45:31.632Z,5.58
2023-03-11T00:47:58.937Z,5.41
2023-03-11T00:50:30.478Z,5.64
2023-03-11T00:52:58.374Z,5.66
2023-03-11T00:55:31.742Z,5.63
2023-03-11T00:58:02.635Z,5.65
2023-03-11T01:00:31.303Z,5.55
2023-03-11T01:03:00.254Z,5.39
2023-03-11T01:05:31.438Z,5.48
2023-03-11T01:07:59.019Z,5.37
2023-03-11T01:10:26.502Z,5.53
2023-03-11T01:12:53.698Z,5.46
2023-03-11T01:15:29.140Z,5.53
2023-03-11T01:17:56.155Z,5.37
2023-03-11T01:20:23.751Z,5.49
2023-03-11T01:22:50.842Z,5.46
2023-03-11T01:25:20.105Z,5.36
2023-03-11T01:27:47.237Z,5.44
2023-03-11T01:30:18.854Z,5.42
2023-03-11T01:32:46.092Z,5.37
2023-03-11T01:35:15.987Z,5.31
2023-03-11T01:37:43.055Z,5.29
2023-03-11T01:40:18.236Z,5.31
2023-03-11T01:42:45.164Z,5.27
2023-03-11T01:45:38.258Z,5.32
2023-03-11T01:48:05.335Z,5.23
2023-03-11T01:50:38.808Z,5.24
2023-03-11T01:53:06.188Z,5.14
2023-03-11T01:55:34.976Z,5.05
2023-03-11T01:58:06.453Z,5.21
2023-03-11T02:00:34.399Z,5.29
2023-03-11T02:03:07.456Z,5.24
2023-03-11T02:05:35.412Z,5.28
2023-03-11T02:08:03.089Z,5.35
2023-03-11T02:10:31.065Z,5.39
2023-03-11T02:12:58.283Z,5.14
2023-03-11T02:15:26.009Z,5.27
2023-03-11T02:17:56.261Z,5.26
2023-03-11T02:21:13.739Z,5.09
2023-03-11T02:24:11.479Z,4.95
2023-03-11T02:26:55.451Z,4.70
2023-03-11T02:29:25.038Z,5.08
2023-03-11T02:31:52.388Z,5.10
2023-03-11T02:34:27.353Z,5.12
2023-03-11T02:36:54.236Z,5.15
2023-03-11T02:39:45.734Z,5.19
2023-03-11T02:42:28.213Z,5.27
2023-03-11T02:45:14.612Z,5.22
2023-03-11T02:47:41.615Z,5.21
2023-03-11T02:50:12.675Z,5.25
2023-03-11T02:52:39.870Z,5.29
2023-03-11T02:55:09.994Z,5.14
2023-03-11T02:57:36.893Z,5.03
2023-03-11T03:00:11.176Z,5.00
2023-03-11T03:02:38.115Z,4.99
2023-03-11T03:05:06.123Z,5.07
2023-03-11T03:07:33.100Z,5.11
2023-03-11T03:10:07.721Z,5.06
2023-03-11T03:12:34.559Z,5.02
2023-03-11T03:15:01.401Z,4.97
2023-03-11T03:17:28.386Z,5.03
2023-03-11T03:19:55.273Z,4.83
2023-03-11T03:22:24.135Z,4.81
2023-03-11T03:24:51.016Z,4.74
2023-03-11T03:27:17.813Z,4.60
2023-03-11T03:29:44.642Z,4.57
2023-03-11T03:32:11.594Z,4.62
2023-03-11T03:34:38.422Z,4.62
2023-03-11T03:37:05.262Z,4.74
2023-03-11T03:39:33.601Z,4.67
2023-03-11T03:42:00.484Z,4.78
2023-03-11T03:44:27.851Z,4.88
2023-03-11T03:46:54.747Z,4.73
2023-03-11T03:49:21.629Z,4.79
2023-03-11T03:51:48.448Z,4.76
2023-03-11T03:54:15.631Z,4.75
2023-03-11T03:56:42.465Z,4.65
2023-03-11T03:59:09.281Z,4.55
2023-03-11T04:01:36.244Z,4.60
2023-03-11T04:04:03.108Z,4.65
2023-03-11T04:06:29.941Z,4.61
2023-03-11T04:08:56.826Z,4.70
2023-03-11T04:11:23.707Z,4.78
2023-03-11T04:13:50.573Z,4.72
2023-03-11T04:16:21.489Z,4.83
2023-03-11T04:18:48.956Z,4.83
2023-03-11T04:21:15.973Z,4.98
2023-03-11T04:23:43.064Z,4.84
2023-03-11T04:26:10.168Z,4.90
2023-03-11T04:28:37.063Z,4.81
2023-03-11T04:31:04.513Z,4.73
2023-03-11T04:33:32.171Z,4.79
2023-03-11T04:35:59.096Z,4.80
2023-03-11T04:38:25.991Z,4.71
2023-03-11T04:40:52.830Z,4.61
2023-03-11T04:43:19.700Z,4.75
2023-03-11T04:45:50.686Z,4.71
2023-03-11T04:48:17.562Z,4.56
2023-03-11T04:50:44.486Z,4.70
2023-03-11T04:53:11.285Z,4.69
2023-03-11T04:55:38.124Z,4.76
2023-03-11T04:58:05.264Z,4.69
2023-03-11T05:00:32.221Z,4.67
2023-03-11T05:02:59.319Z,4.67
2023-03-11T05:05:26.160Z,4.81
2023-03-11T05:07:52.964Z,4.68
2023-03-11T05:10:22.358Z,4.72
2023-03-11T05:12:52.956Z,4.77
2023-03-11T05:15:20.212Z,4.65
2023-03-11T05:17:47.521Z,4.60
2023-03-11T05:20:15.865Z,4.37
2023-03-11T05:22:43.076Z,4.48
2023-03-11T05:25:10.226Z,4.56
2023-03-11T05:27:37.160Z,4.47
2023-03-11T05:30:04.722Z,4.63
2023-03-11T05:32:31.666Z,4.55
2023-03-11T05:34:58.549Z,4.45
2023-03-11T05:37:25.431Z,4.51
2023-03-11T05:39:52.984Z,4.53
2023-03-11T05:42:21.441Z,4.43
2023-03-11T05:44:48.526Z,4.45
2023-03-11T05:47:17.574Z,4.42
2023-03-11T05:49:44.469Z,4.49
2023-03-11T05:52:11.280Z,4.53
2023-03-11T05:54:38.100Z,4.48
2023-03-11T05:57:05.014Z,4.60
2023-03-11T05:59:32.629Z,4.55
2023-03-11T06:01:59.485Z,4.68
2023-03-11T06:04:26.829Z,4.58
2023-03-11T06:06:53.992Z,4.64
2023-03-11T06:09:20.796Z,4.50
2023-03-11T06:11:47.668Z,4.55
2023-03-11T06:14:15.144Z,4.58
2023-03-11T06:16:42.293Z,4.51
2023-03-11T06:19:09.503Z,4.34
2023-03-11T06:21:36.461Z,4.54
2023-03-11T06:24:03.444Z,4.57
2023-03-11T06:26:30.346Z,4.50
2023-03-11T06:28:57.216Z,4.45
2023-03-11T06:31:27.131Z,4.60
2023-03-11T06:33:56.017Z,4.60
2023-03-11T06:36:23.770Z,4.32
2023-03-11T06:38:53.643Z,4.54
2023-03-11T06:41:21.059Z,4.46
2023-03-11T06:43:47.901Z,4.43
2023-03-11T06:46:23.681Z,4.54
2023-03-11T06:48:53.295Z,4.38
2023-03-11T06:51:21.484Z,4.37
2023-03-11T06:53:54.829Z,4.46
2023-03-11T06:56:23.214Z,4.52
2023-03-11T06:58:50.620Z,4.51
2023-03-11T07:01:24.919Z,4.54
2023-03-11T07:03:52.622Z,4.49
2023-03-11T07:06:26.093Z,4.36
2023-03-11T07:08:53.995Z,4.36
2023-03-11T07:11:26.568Z,4.31
2023-03-11T07:13:55.258Z,4.19
2023-03-11T07:16:25.815Z,4.39
2023-03-11T07:18:56.038Z,4.35
2023-03-11T07:21:23.888Z,4.28
2023-03-11T07:23:55.788Z,4.29
2023-03-11T07:26:24.500Z,4.32
2023-03-11T07:28:52.813Z,4.20
2023-03-11T07:31:24.605Z,4.21
2023-03-11T07:33:52.131Z,4.30
2023-03-11T07:36:22.954Z,4.29
2023-03-11T07:38:55.347Z,4.34
2023-03-11T07:41:22.246Z,4.39
2023-03-11T07:43:49.090Z,4.36
2023-03-11T07:46:18.525Z,4.48
2023-03-11T07:48:46.302Z,4.46
2023-03-11T07:51:15.122Z,4.41
2023-03-11T07:53:42.285Z,4.50
2023-03-11T07:56:12.323Z,4.48
2023-03-11T07:58:40.377Z,4.46
2023-03-11T08:01:17.453Z,4.39
2023-03-11T08:03:50.086Z,4.49
2023-03-11T08:06:21.799Z,4.60
2023-03-11T08:08:51.508Z,4.42
2023-03-11T08:11:20.620Z,4.56
2023-03-11T08:13:48.347Z,4.56
2023-03-11T08:16:20.320Z,4.50
2023-03-11T08:18:49.257Z,4.46
2023-03-11T08:21:26.407Z,4.38
2023-03-11T08:23:58.529Z,4.56
2023-03-11T08:26:25.862Z,4.52
2023-03-11T08:28:52.720Z,4.77
2023-03-11T08:31:27.499Z,4.70
2023-03-11T08:34:01.780Z,4.79
2023-03-11T08:36:29.446Z,4.77
2023-03-11T08:38:56.357Z,4.68
2023-03-11T08:41:23.321Z,4.63
2023-03-11T08:43:52.152Z,4.65
2023-03-11T08:46:30.487Z,4.65
2023-03-11T08:49:01.079Z,4.61
2023-03-11T08:51:30.543Z,4.54
2023-03-11T08:53:58.349Z,4.74
2023-03-11T08:56:25.634Z,4.64
2023-03-11T08:58:52.752Z,4.57
2023-03-11T09:01:20.370Z,4.75
2023-03-11T09:03:47.593Z,4.93
2023-03-11T09:06:16.446Z,4.83
2023-03-11T09:08:45.593Z,4.85
2023-03-11T09:11:15.392Z,5.02
2023-03-11T09:13:42.999Z,5.06
2023-03-11T09:16:16.345Z,5.04
2023-03-11T09:18:43.790Z,5.02
2023-03-11T09:21:11.407Z,5.02
2023-03-11T09:23:38.628Z,4.88
2023-03-11T09:26:05.733Z,4.99
2023-03-11T09:28:32.993Z,5.16
2023-03-11T09:30:59.944Z,5.02
2023-03-11T09:33:26.846Z,5.11
2023-03-11T09:35:53.777Z,5.21
2023-03-11T09:38:20.728Z,5.32
2023-03-11T09:40:57.442Z,5.38
2023-03-11T09:43:41.110Z,5.30
2023-03-11T09:46:24.630Z,5.38
2023-03-11T09:49:15.827Z,5.36
2023-03-11T09:52:15.503Z,5.41
2023-03-11T09:54:54.815Z,5.48
2023-03-11T09:57:30.845Z,5.44
2023-03-11T09:59:59.914Z,5.50
2023-03-11T10:02:27.812Z,5.44
2023-03-11T10:05:07.671Z,5.52
2023-03-11T10:07:40.465Z,5.50
2023-03-11T10:10:34.550Z,5.67
2023-03-11T10:13:18.020Z,5.77
2023-03-11T10:15:52.872Z,5.83
2023-03-11T10:19:12.001Z,5.90
2023-03-11T10:21:52.868Z,5.80
2023-03-11T10:24:36.316Z,5.80
2023-03-11T10:27:16.225Z,5.83
2023-03-11T10:29:58.376Z,5.85
2023-03-11T10:33:19.533Z,6.06
2023-03-11T10:35:51.911Z,6.01
2023-03-11T10:38:23.541Z,6.15
2023-03-11T10:40:55.554Z,6.15
2023-03-11T10:43:32.186Z,6.15
2023-03-11T10:45:59.716Z,6.16
2023-03-11T10:48:28.566Z,6.21
2023-03-11T10:51:10.529Z,6.18
2023-03-11T10:53:47.372Z,6.11
2023-03-11T10:56:38.170Z,6.30
2023-03-11T10:59:21.910Z,6.28
2023-03-11T11:02:17.891Z,6.35
2023-03-11T11:04:45.270Z,6.35
2023-03-11T11:07:29.276Z,6.40
2023-03-11T11:10:17.655Z,6.48
2023-03-11T11:12:56.879Z,6.55
2023-03-11T11:15:32.638Z,6.45
2023-03-11T11:18:36.335Z,6.58
2023-03-11T11:21:08.616Z,6.67
2023-03-11T11:23:44.065Z,6.60
2023-03-11T11:26:24.750Z,6.65
2023-03-11T11:29:09.588Z,6.69
2023-03-11T11:31:42.544Z,6.58
2023-03-11T11:34:34.633Z,6.68
2023-03-11T11:37:04.722Z,6.53
2023-03-11T11:39:51.800Z,6.53
2023-03-11T11:42:24.787Z,6.61
2023-03-11T11:45:07.301Z,6.66
2023-03-11T11:47:36.712Z,6.73
2023-03-11T11:50:26.511Z,6.64
2023-03-11T11:53:02.465Z,6.75
2023-03-11T11:55:30.994Z,6.80
2023-03-11T11:57:58.216Z,6.82
2023-03-11T12:00:50.222Z,6.80
2023-03-11T12:03:41.442Z,6.75
2023-03-11T12:06:27.235Z,6.63
2023-03-11T12:09:17.304Z,6.73
2023-03-11T12:11:50.195Z,6.76
2023-03-11T12:14:21.841Z,6.79
2023-03-11T12:17:03.933Z,6.81
2023-03-11T12:19:50.865Z,6.88
2023-03-11T12:22:51.661Z,6.84
2023-03-11T12:25:36.476Z,6.91
2023-03-11T12:28:20.419Z,6.90
2023-03-11T12:31:00.734Z,6.85
2023-03-11T12:33:37.105Z,6.83
2023-03-11T12:36:05.938Z,6.79
2023-03-11T12:38:47.610Z,6.72
2023-03-11T12:41:14.316Z,6.98
2023-03-11T12:43:40.986Z,7.03
2023-03-11T12:46:13.354Z,6.88
2023-03-11T12:48:49.673Z,6.91
2023-03-11T12:51:37.358Z,6.99
2023-03-11T12:54:35.799Z,7.01
2023-03-11T12:57:18.131Z,7.05
2023-03-11T13:00:30.185Z,7.10
2023-03-11T13:03:29.589Z,7.11
2023-03-11T13:06:26.634Z,7.27
2023-03-11T13:08:59.017Z,7.22
2023-03-11T13:11:47.237Z,7.34
2023-03-11T13:14:35.829Z,7.23
2023-03-11T13:17:30.794Z,7.43
2023-03-11T13:19:58.835Z,7.47
2023-03-11T13:22:40.845Z,7.48
2023-03-11T13:25:37.501Z,7.47
2023-03-11T13:28:33.472Z,7.55
2023-03-11T13:31:44.464Z,7.58
2023-03-11T13:34:37.143Z,7.52
2023-03-11T13:37:36.727Z,7.61
2023-03-11T13:40:29.508Z,7.56
2023-03-11T13:43:03.877Z,7.45
2023-03-11T13:45:36.997Z,7.60
2023-03-11T13:48:17.034Z,7.67
2023-03-11T13:50:51.282Z,7.62
2023-03-11T13:53:25.994Z,7.56
2023-03-11T13:55:53.066Z,7.53
2023-03-11T13:58:28.258Z,7.49
2023-03-11T14:01:01.229Z,7.26
2023-03-11T14:03:42.180Z,7.49
2023-03-11T14:06:18.780Z,7.48
2023-03-11T14:08:57.661Z,7.64
2023-03-11T14:11:29.507Z,7.68
2023-03-11T14:13:56.641Z,7.56
2023-03-11T14:16:35.965Z,7.41
2023-03-11T14:19:15.624Z,7.64
2023-03-11T14:21:48.600Z,7.75
2023-03-11T14:24:31.747Z,7.59
2023-03-11T14:27:02.776Z,7.73
2023-03-11T14:29:32.588Z,7.75
2023-03-11T14:31:59.482Z,7.70
2023-03-11T14:34:28.974Z,7.57
2023-03-11T14:37:03.965Z,7.58
2023-03-11T14:39:39.983Z,7.73
2023-03-11T14:42:31.782Z,7.76
2023-03-11T14:45:18.618Z,7.81
2023-03-11T14:47:56.497Z,7.85
2023-03-11T14:50:27.242Z,7.74
2023-03-11T14:53:25.314Z,7.89
2023-03-11T14:56:00.160Z,7.94
2023-03-11T14:58:36.892Z,7.96
2023-03-11T15:01:17.731Z,7.98
2023-03-11T15:04:06.428Z,8.00
2023-03-11T15:06:35.194Z,7.97
2023-03-11T15:09:08.590Z,8.01
2023-03-11T15:12:28.425Z,8.10
2023-03-11T15:14:55.253Z,8.11
2023-03-11T15:17:35.370Z,8.11
2023-03-11T15:20:07.493Z,8.07
2023-03-11T15:22:39.454Z,8.15
2023-03-11T15:25:19.326Z,8.12
2023-03-11T15:27:46.700Z,8.13
2023-03-11T15:30:32.109Z,8.14
2023-03-11T15:32:59.302Z,8.00
2023-03-11T15:35:29.327Z,8.03
2023-03-11T15:38:21.375Z,7.99
2023-03-11T15:41:02.934Z,8.08
2023-03-11T15:43:34.247Z,8.04
2023-03-11T15:46:02.965Z,8.10
2023-03-11T15:48:31.208Z,8.16
2023-03-11T15:51:00.572Z,8.08
2023-03-11T15:53:30.179Z,7.94
2023-03-11T15:56:13.479Z,8.02
2023-03-11T15:58:40.387Z,7.99
2023-03-11T16:01:07.652Z,7.95
2023-03-11T16:03:34.547Z,7.92
2023-03-11T16:06:01.387Z,8.01
2023-03-11T16:08:28.263Z,7.87
2023-03-11T16:10:55.354Z,7.89
2023-03-11T16:13:22.185Z,7.91
2023-03-11T16:15:49.138Z,7.92
2023-03-11T16:18:16.079Z,7.87
2023-03-11T16:20:47.118Z,7.85
2023-03-11T16:23:27.296Z,7.83
2023-03-11T16:25:59.116Z,7.90
2023-03-11T16:28:25.967Z,7.93
2023-03-11T16:30:52.989Z,7.90
2023-03-11T16:33:19.972Z,7.87
2023-03-11T16:35:47.257Z,8.05
2023-03-11T16:38:14.744Z,8.08
2023-03-11T16:40:41.571Z,7.95
2023-03-11T16:43:12.715Z,7.92
2023-03-11T16:45:40.098Z,7.89
2023-03-11T16:48:07.260Z,7.98
2023-03-11T16:50:36.972Z,7.96
2023-03-11T16:53:04.949Z,7.87
2023-03-11T16:55:32.047Z,7.97
2023-03-11T16:57:59.035Z,7.91
2023-03-11T17:00:26.266Z,7.81
2023-03-11T17:02:53.211Z,7.79
2023-03-11T17:05:20.437Z,7.78
2023-03-11T17:07:47.360Z,7.75
2023-03-11T17:10:14.565Z,7.64
2023-03-11T17:12:41.480Z,7.63
2023-03-11T17:15:08.906Z,7.66
2023-03-11T17:17:36.397Z,7.62
2023-03-11T17:20:04.099Z,7.50
2023-03-11T17:22:32.458Z,7.59
2023-03-11T17:24:59.348Z,7.55
2023-03-11T17:27:32.016Z,7.53
2023-03-11T17:30:00.403Z,7.45
2023-03-11T17:32:28.367Z,7.46
2023-03-11T17:34:55.489Z,7.34
2023-03-11T17:37:22.737Z,7.40
2023-03-11T17:39:49.654Z,7.40
2023-03-11T17:42:16.512Z,7.26
2023-03-11T17:44:51.508Z,7.23
2023-03-11T17:47:19.844Z,7.30
2023-03-11T17:49:48.655Z,7.31
2023-03-11T17:52:15.451Z,7.28
2023-03-11T17:54:42.378Z,7.03
2023-03-11T17:57:09.165Z,7.29
2023-03-11T17:59:35.999Z,7.13
2023-03-11T18:02:03.268Z,7.21
2023-03-11T18:04:30.213Z,7.22
2023-03-11T18:06:57.100Z,7.17
2023-03-11T18:09:24.206Z,7.10
2023-03-11T18:11:51.068Z,7.09
2023-03-11T18:14:17.872Z,7.03
2023-03-11T18:16:44.765Z,7.12
2023-03-11T18:19:11.631Z,7.16
2023-03-11T18:21:38.539Z,7.15
2023-03-11T18:24:06.049Z,7.22
2023-03-11T18:26:34.019Z,7.18
2023-03-11T18:29:01.322Z,7.31
2023-03-11T18:31:30.588Z,7.29
2023-03-11T18:34:03.891Z,7.26
2023-03-11T18:36:34.423Z,7.30
2023-03-11T18:39:02.191Z,7.19
2023-03-11T18:41:33.503Z,7.24
2023-03-11T18:44:01.338Z,7.22
2023-03-11T18:46:31.656Z,7.21
2023-03-11T18:49:00.225Z,7.04
2023-03-11T18:51:29.812Z,6.48
2023-03-11T18:53:56.865Z,6.17
2023-03-11T18:56:23.855Z,6.27
2023-03-11T18:58:50.764Z,6.36
2023-03-11T19:01:20.683Z,6.56
2023-03-11T19:03:56.900Z,6.67
2023-03-11T19:06:25.449Z,6.66
2023-03-11T19:08:53.099Z,6.77
2023-03-11T19:11:22.928Z,6.77
2023-03-11T19:13:49.953Z,6.71
2023-03-11T19:16:21.022Z,6.80
2023-03-11T19:18:48.376Z,6.80
2023-03-11T19:21:16.490Z,6.72
2023-03-11T19:23:44.338Z,6.75
2023-03-11T19:26:11.559Z,6.72
2023-03-11T19:28:38.564Z,6.63
2023-03-11T19:31:05.830Z,6.59
2023-03-11T19:33:33.290Z,6.61
2023-03-11T19:36:04.593Z,6.51
2023-03-11T19:38:32.080Z,6.54
2023-03-11T19:41:05.248Z,6.48
2023-03-11T19:43:33.425Z,6.39
2023-03-11T19:46:00.430Z,6.44
2023-03-11T19:48:27.560Z,6.37
2023-03-11T19:50:54.814Z,6.30
2023-03-11T19:53:23.180Z,6.31
2023-03-11T19:55:56.532Z,6.26
2023-03-11T19:58:29.494Z,6.22
2023-03-11T20:00:58.650Z,6.22
2023-03-11T20:03:26.472Z,6.11
2023-03-11T20:05:56.588Z,6.11
2023-03-11T20:08:25.165Z,5.88
2023-03-11T20:10:53.337Z,6.01
2023-03-11T20:13:22.105Z,5.91
2023-03-11T20:15:50.104Z,5.81
2023-03-11T20:18:18.042Z,5.86
2023-03-11T20:20:46.785Z,5.79
2023-03-11T20:23:13.999Z,5.78
2023-03-11T20:25:41.927Z,5.72
2023-03-11T20:28:09.341Z,5.71
2023-03-11T20:30:38.660Z,5.60
2023-03-11T20:33:06.942Z,5.60
2023-03-11T20:35:34.133Z,5.59
2023-03-11T20:38:02.752Z,5.48
2023-03-11T20:40:30.160Z,5.44
2023-03-11T20:42:57.020Z,5.42
2023-03-11T20:45:24.042Z,5.44
2023-03-11T20:47:53.528Z,5.40
2023-03-11T20:50:22.101Z,5.38
2023-03-11T20:52:50.124Z,5.36
2023-03-11T20:55:17.345Z,5.17
2023-03-11T20:57:44.299Z,5.23
2023-03-11T21:00:13.253Z,5.29
2023-03-11T21:02:41.949Z,5.29
2023-03-11T21:05:10.516Z,5.23
2023-03-11T21:07:37.884Z,5.25
2023-03-11T21:10:08.861Z,5.23
2023-03-11T21:12:35.751Z,5.17
2023-03-11T21:15:03.870Z,4.98
2023-03-11T21:17:30.816Z,5.02
2023-03-11T21:19:57.688Z,4.97
2023-03-11T21:22:24.576Z,4.95
2023-03-11T21:24:53.032Z,4.91
2023-03-11T21:27:26.052Z,4.83
2023-03-11T21:29:57.300Z,4.84
2023-03-11T21:32:26.271Z,4.92
2023-03-11T21:35:00.876Z,4.83
2023-03-11T21:37:28.892Z,4.75
2023-03-11T21:39:56.340Z,4.81
2023-03-11T21:42:23.581Z,4.58
2023-03-11T21:44:51.494Z,4.67
2023-03-11T21:47:19.344Z,4.59
2023-03-11T21:49:46.263Z,4.59
2023-03-11T21:52:13.372Z,4.56
2023-03-11T21:54:40.371Z,4.60
2023-03-11T21:57:07.238Z,4.49
2023-03-11T21:59:34.215Z,4.42
2023-03-11T22:02:03.198Z,4.37
2023-03-11T22:04:31.688Z,4.47
2023-03-11T22:06:58.991Z,4.36
2023-03-11T22:09:26.286Z,4.43
2023-03-11T22:11:53.831Z,4.30
2023-03-11T22:14:20.844Z,4.26
2023-03-11T22:16:47.784Z,4.40
2023-03-11T22:19:14.865Z,4.26
2023-03-11T22:21:42.108Z,4.30
2023-03-11T22:24:09.156Z,4.29
2023-03-11T22:26:36.030Z,4.27
2023-03-11T22:29:04.046Z,4.11
2023-03-11T22:31:31.357Z,4.16
2023-03-11T22:33:58.404Z,4.22
2023-03-11T22:36:25.421Z,4.19
2023-03-11T22:38:52.288Z,4.12
2023-03-11T22:41:20.280Z,4.15
2023-03-11T22:43:47.371Z,4.07
2023-03-11T22:46:14.675Z,4.10
2023-03-11T22:48:41.866Z,3.92
2023-03-11T22:51:08.769Z,3.98
2023-03-11T22:53:35.653Z,3.94
2023-03-11T22:56:11.531Z,3.97
2023-03-11T22:58:38.648Z,3.88
2023-03-11T23:01:06.272Z,3.72
2023-03-11T23:03:34.724Z,3.90
2023-03-11T23:06:05.206Z,3.89
2023-03-11T23:08:32.510Z,3.88
2023-03-11T23:11:04.792Z,3.82
2023-03-11T23:13:32.530Z,3.86
2023-03-11T23:16:05.964Z,3.74
2023-03-11T23:18:33.782Z,3.80
2023-03-11T23:21:00.690Z,3.81
2023-03-11T23:23:27.600Z,3.60
2023-03-11T23:25:54.551Z,3.69
2023-03-11T23:28:21.768Z,3.74
2023-03-11T23:30:48.734Z,3.66
2023-03-11T23:33:15.533Z,3.60
2023-03-11T23:35:42.858Z,3.66
2023-03-11T23:38:10.537Z,3.66
2023-03-11T23:40:40.209Z,3.54
2023-03-11T23:43:07.109Z,3.60
2023-03-11T23:45:33.906Z,3.51
2023-03-11T23:48:00.733Z,3.49
2023-03-11T23:50:27.602Z,3.49
2023-03-11T23:52:54.400Z,3.51
2023-03-11T23:55:21.246Z,3.55
2023-03-11T23:57:48.154Z,3.51
